Terminal Aerodrome Forecast
Issued by NWS

Home | Current Version | Previous Version | Text Only | Print | Product List | Glossary On
Versions: 1 2 3 4 5 6 7 8 9 10 11 12 13 14
041
FTUS43 KICT 240524
TAFHUT
TAF
KHUT 240524Z 2406/2506 14012KT P6SM SKC
     FM241200 17015G22KT P6SM SCT200
     FM241800 20017G25KT P6SM SCT150
     FM242100 25015G22KT P6SM BKN130
     FM250000 31015G22KT P6SM FEW040 SCT130=

USA.gov is the U.S. government's official web portal to all federal, state and local government web resources and services.